createdAt,value
2022-10-14T00:01:24.042Z,15.78
2022-10-14T00:03:53.977Z,15.78
2022-10-14T00:06:26.973Z,15.78
2022-10-14T00:08:55.823Z,15.76
2022-10-14T00:11:27.554Z,15.74
2022-10-14T00:13:58.044Z,15.75
2022-10-14T00:16:28.915Z,15.73
2022-10-14T00:18:58.131Z,15.73
2022-10-14T00:21:28.878Z,15.71
2022-10-14T00:23:57.978Z,15.71
2022-10-14T00:26:30.859Z,15.71
2022-10-14T00:29:00.708Z,15.70
2022-10-14T00:31:29.585Z,15.70
2022-10-14T00:33:58.041Z,15.71
2022-10-14T00:36:28.750Z,15.71
2022-10-14T00:38:57.412Z,15.71
2022-10-14T00:41:28.867Z,15.72
2022-10-14T00:44:03.542Z,15.72
2022-10-14T00:46:34.841Z,15.72
2022-10-14T00:49:08.105Z,15.72
2022-10-14T00:51:40.262Z,15.72
2022-10-14T00:54:09.319Z,15.73
2022-10-14T00:56:38.102Z,15.73
2022-10-14T00:59:07.695Z,15.74
2022-10-14T01:01:35.974Z,15.74
2022-10-14T01:04:04.298Z,15.76
2022-10-14T01:06:49.101Z,15.74
2022-10-14T01:09:25.719Z,15.74
2022-10-14T01:12:27.525Z,15.75
2022-10-14T01:15:05.808Z,15.74
2022-10-14T01:17:46.144Z,15.74
2022-10-14T01:21:04.934Z,15.75
2022-10-14T01:24:11.200Z,15.71
2022-10-14T01:27:09.348Z,15.72
2022-10-14T01:30:23.997Z,15.71
2022-10-14T01:33:08.491Z,15.71
2022-10-14T01:35:52.580Z,15.72
2022-10-14T01:38:25.729Z,15.72
2022-10-14T01:40:59.788Z,15.73
2022-10-14T01:43:29.803Z,15.76
2022-10-14T01:46:02.101Z,15.74
2022-10-14T01:48:36.978Z,15.74
2022-10-14T01:51:11.061Z,15.75
2022-10-14T01:53:44.124Z,15.72
2022-10-14T01:56:14.609Z,15.75
2022-10-14T01:58:43.856Z,15.75
2022-10-14T02:01:13.519Z,15.75
2022-10-14T02:03:45.055Z,15.76
2022-10-14T02:06:19.423Z,15.75
2022-10-14T02:09:07.349Z,15.72
2022-10-14T02:11:42.747Z,15.75
2022-10-14T02:14:21.690Z,15.74
2022-10-14T02:17:01.683Z,15.73
2022-10-14T02:19:40.593Z,15.73
2022-10-14T02:22:15.121Z,15.73
2022-10-14T02:24:48.656Z,15.72
2022-10-14T02:27:20.127Z,15.71
2022-10-14T02:29:49.397Z,15.71
2022-10-14T02:32:22.204Z,15.70
2022-10-14T02:34:54.842Z,15.69
2022-10-14T02:37:24.633Z,15.68
2022-10-14T02:39:59.213Z,15.66
2022-10-14T02:42:29.213Z,15.65
2022-10-14T02:45:01.639Z,15.65
2022-10-14T02:47:31.227Z,15.63
2022-10-14T02:49:59.444Z,15.63
2022-10-14T02:52:27.824Z,15.62
2022-10-14T02:54:56.111Z,15.62
2022-10-14T02:57:24.356Z,15.62
2022-10-14T02:59:52.608Z,15.62
2022-10-14T03:02:21.138Z,15.62
2022-10-14T03:04:50.855Z,15.63
2022-10-14T03:07:19.127Z,15.64
2022-10-14T03:09:47.380Z,15.65
2022-10-14T03:12:15.615Z,15.64
2022-10-14T03:14:43.878Z,15.65
2022-10-14T03:17:12.458Z,15.64
2022-10-14T03:19:40.711Z,15.64
2022-10-14T03:22:10.277Z,15.64
2022-10-14T03:24:38.499Z,15.65
2022-10-14T03:27:06.708Z,15.66
2022-10-14T03:29:35.005Z,15.66
2022-10-14T03:32:03.202Z,15.67
2022-10-14T03:34:31.425Z,15.67
2022-10-14T03:36:59.622Z,15.68
2022-10-14T03:39:29.260Z,15.69
2022-10-14T03:41:57.476Z,15.69
2022-10-14T03:44:25.657Z,15.71
2022-10-14T03:46:53.858Z,15.71
2022-10-14T03:49:22.106Z,15.72
2022-10-14T03:51:50.345Z,15.74
2022-10-14T03:54:18.760Z,15.74
2022-10-14T03:56:48.407Z,15.73
2022-10-14T03:59:16.793Z,15.74
2022-10-14T04:01:45.142Z,15.75
2022-10-14T04:04:13.501Z,15.75
2022-10-14T04:06:41.782Z,15.76
2022-10-14T04:09:10.044Z,15.76
2022-10-14T04:11:38.290Z,15.76
2022-10-14T04:14:07.919Z,15.77
2022-10-14T04:16:36.261Z,15.77
2022-10-14T04:19:04.537Z,15.78
2022-10-14T04:21:32.865Z,15.76
2022-10-14T04:24:04.806Z,15.78
2022-10-14T04:26:35.655Z,15.79
2022-10-14T04:29:03.984Z,15.80
2022-10-14T04:31:33.540Z,15.80
2022-10-14T04:34:01.765Z,15.79
2022-10-14T04:36:30.010Z,15.79
2022-10-14T04:38:58.263Z,15.82
2022-10-14T04:41:26.566Z,15.83
2022-10-14T04:43:54.858Z,15.84
2022-10-14T04:46:23.099Z,15.85
2022-10-14T04:48:52.692Z,15.86
2022-10-14T04:51:20.915Z,15.86
2022-10-14T04:53:49.119Z,15.85
2022-10-14T04:56:17.467Z,15.87
2022-10-14T04:58:45.713Z,15.85
2022-10-14T05:01:13.958Z,15.87
2022-10-14T05:03:42.241Z,15.88
2022-10-14T05:06:11.958Z,15.87
2022-10-14T05:08:40.261Z,15.87
2022-10-14T05:11:08.539Z,15.87
2022-10-14T05:13:37.195Z,15.86
2022-10-14T05:16:05.991Z,15.85
2022-10-14T05:18:34.289Z,15.86
2022-10-14T05:21:03.003Z,15.85
2022-10-14T05:23:32.649Z,15.84
2022-10-14T05:26:00.855Z,15.85
2022-10-14T05:28:29.536Z,15.86
2022-10-14T05:30:57.803Z,15.87
2022-10-14T05:33:26.131Z,15.84
2022-10-14T05:35:58.968Z,15.87
2022-10-14T05:38:28.051Z,15.87
2022-10-14T05:40:58.776Z,15.85
2022-10-14T05:43:31.998Z,15.87
2022-10-14T05:46:01.257Z,15.86
2022-10-14T05:48:29.635Z,15.87
2022-10-14T05:51:01.478Z,15.87
2022-10-14T05:53:30.563Z,15.87
2022-10-14T05:56:05.652Z,15.87
2022-10-14T05:58:34.165Z,15.87
2022-10-14T06:01:02.552Z,15.87
2022-10-14T06:03:30.918Z,15.87
2022-10-14T06:05:59.355Z,15.86
2022-10-14T06:08:27.945Z,15.87
2022-10-14T06:10:56.251Z,15.86
2022-10-14T06:13:25.975Z,15.87
2022-10-14T06:15:54.207Z,15.85
2022-10-14T06:18:22.430Z,15.85
2022-10-14T06:20:54.569Z,15.84
2022-10-14T06:23:23.051Z,15.85
2022-10-14T06:25:51.368Z,15.85
2022-10-14T06:28:19.892Z,15.86
2022-10-14T06:30:52.518Z,15.87
2022-10-14T06:33:21.635Z,15.87
2022-10-14T06:35:50.626Z,15.89
2022-10-14T06:38:18.989Z,15.90
2022-10-14T06:40:47.242Z,15.92
2022-10-14T06:43:15.470Z,15.93
2022-10-14T06:45:43.679Z,15.95
2022-10-14T06:48:13.482Z,15.96
2022-10-14T06:50:42.467Z,15.97
2022-10-14T06:53:10.805Z,15.98
2022-10-14T06:55:39.052Z,16.01
2022-10-14T06:58:07.459Z,16.02
2022-10-14T07:00:37.252Z,16.03
2022-10-14T07:03:05.668Z,16.07
2022-10-14T07:05:36.363Z,16.04
2022-10-14T07:08:04.599Z,16.09
2022-10-14T07:10:32.828Z,16.12
2022-10-14T07:13:01.469Z,16.15
2022-10-14T07:15:33.857Z,16.18
2022-10-14T07:18:06.099Z,16.20
2022-10-14T07:20:36.546Z,16.24
2022-10-14T07:23:04.810Z,16.28
2022-10-14T07:25:33.577Z,16.32
2022-10-14T07:28:02.173Z,16.35
2022-10-14T07:30:30.556Z,16.37
2022-10-14T07:33:00.143Z,16.40
2022-10-14T07:35:28.767Z,16.44
2022-10-14T07:38:00.768Z,16.51
2022-10-14T07:40:30.420Z,16.58
2022-10-14T07:42:58.630Z,16.65
2022-10-14T07:45:27.114Z,16.73
2022-10-14T07:47:55.348Z,16.81
2022-10-14T07:50:23.577Z,16.88
2022-10-14T07:52:51.798Z,16.96
2022-10-14T07:55:21.457Z,17.03
2022-10-14T07:57:49.709Z,17.14
2022-10-14T08:00:18.446Z,17.27
2022-10-14T08:02:46.686Z,17.45
2022-10-14T08:08:03.308Z,17.80
2022-10-14T08:10:32.988Z,17.96
2022-10-14T08:13:01.232Z,18.13
2022-10-14T08:15:30.400Z,18.29
2022-10-14T08:17:58.759Z,18.44
2022-10-14T08:20:27.104Z,18.60
2022-10-14T08:22:56.081Z,18.79
2022-10-14T08:25:24.355Z,18.96
2022-10-14T08:27:57.346Z,19.13
2022-10-14T08:30:26.152Z,19.25
2022-10-14T08:32:55.253Z,19.34
2022-10-14T08:35:23.690Z,19.44
2022-10-14T08:37:58.997Z,19.55
2022-10-14T08:40:29.481Z,19.71
2022-10-14T08:43:05.413Z,19.91
2022-10-14T08:45:39.046Z,20.10
2022-10-14T08:48:19.315Z,20.33
2022-10-14T08:50:54.448Z,20.53
2022-10-14T08:53:28.342Z,20.72
2022-10-14T08:56:00.860Z,20.92
2022-10-14T08:58:36.087Z,21.12
2022-10-14T09:01:24.253Z,21.27
2022-10-14T09:03:54.918Z,21.39
2022-10-14T09:06:28.341Z,21.54
2022-10-14T09:09:01.662Z,21.69
2022-10-14T09:11:34.501Z,21.80
2022-10-14T09:14:04.845Z,21.90
2022-10-14T09:16:36.640Z,21.97
2022-10-14T09:19:08.894Z,21.97
2022-10-14T09:21:54.205Z,21.97
2022-10-14T09:24:25.200Z,21.94
2022-10-14T09:26:58.450Z,21.90
2022-10-14T09:29:31.631Z,21.88
2022-10-14T09:32:02.861Z,21.88
2022-10-14T09:34:35.751Z,21.93
2022-10-14T09:37:25.009Z,21.97
2022-10-14T09:39:56.210Z,22.10
2022-10-14T09:42:29.479Z,22.23
2022-10-14T09:45:15.692Z,22.44
2022-10-14T09:47:52.460Z,22.68
2022-10-14T09:50:27.147Z,22.86
2022-10-14T09:53:02.789Z,23.00
2022-10-14T09:55:31.850Z,23.10
2022-10-14T09:58:07.807Z,23.17
2022-10-14T10:00:38.918Z,23.18
2022-10-14T10:03:09.908Z,23.17
2022-10-14T10:05:39.855Z,23.18
2022-10-14T10:08:18.013Z,23.14
2022-10-14T10:11:05.473Z,23.09
2022-10-14T10:13:44.932Z,23.01
2022-10-14T10:16:25.487Z,22.97
2022-10-14T10:18:57.251Z,22.94
2022-10-14T10:21:30.098Z,22.92
2022-10-14T10:24:00.778Z,22.89
2022-10-14T10:26:32.897Z,22.85
2022-10-14T10:29:03.828Z,22.85
2022-10-14T10:32:08.703Z,22.81
2022-10-14T10:35:02.326Z,22.79
2022-10-14T10:37:33.326Z,22.79
2022-10-14T10:40:28.962Z,22.79
2022-10-14T10:43:16.422Z,22.79
2022-10-14T10:46:07.836Z,22.78
2022-10-14T10:48:47.819Z,22.75
2022-10-14T10:51:26.737Z,22.70
2022-10-14T10:54:08.226Z,22.67
2022-10-14T10:56:44.981Z,22.63
2022-10-14T10:59:37.688Z,22.61
2022-10-14T11:02:34.171Z,22.55
2022-10-14T11:05:13.879Z,22.48
2022-10-14T11:08:12.595Z,22.41
2022-10-14T11:11:09.364Z,22.37
2022-10-14T11:13:46.734Z,22.35
2022-10-14T11:16:21.496Z,22.33
2022-10-14T11:18:52.918Z,22.34
2022-10-14T11:21:38.013Z,22.32
2022-10-14T11:24:11.545Z,22.36
2022-10-14T11:26:57.715Z,22.43
2022-10-14T11:30:08.865Z,22.52
2022-10-14T11:32:51.719Z,22.62
2022-10-14T11:38:31.920Z,22.76
2022-10-14T11:41:07.691Z,22.82
2022-10-14T11:43:45.041Z,22.88
2022-10-14T11:46:17.149Z,22.95
2022-10-14T11:48:51.177Z,23.03
2022-10-14T11:51:26.113Z,23.14
2022-10-14T11:54:02.204Z,23.19
2022-10-14T11:56:38.969Z,23.21
2022-10-14T11:59:46.040Z,23.21
2022-10-14T12:02:22.723Z,23.23
2022-10-14T12:04:58.480Z,23.23
2022-10-14T12:07:34.194Z,23.21
2022-10-14T12:10:14.518Z,23.22
2022-10-14T12:12:44.508Z,23.24
2022-10-14T12:15:19.399Z,23.27
2022-10-14T12:17:52.354Z,23.32
2022-10-14T12:20:35.689Z,23.38
2022-10-14T12:23:07.816Z,23.43
2022-10-14T12:25:45.483Z,23.44
2022-10-14T12:28:15.453Z,23.47
2022-10-14T12:30:44.090Z,23.49
2022-10-14T12:33:22.320Z,23.52
2022-10-14T12:36:00.297Z,23.55
2022-10-14T12:38:31.382Z,23.51
2022-10-14T12:41:35.141Z,23.47
2022-10-14T12:44:04.490Z,23.46
2022-10-14T12:46:35.785Z,23.40
2022-10-14T12:49:05.187Z,23.28
2022-10-14T12:51:33.438Z,23.23
2022-10-14T12:54:15.632Z,23.13
2022-10-14T12:56:55.245Z,23.07
2022-10-14T12:59:28.355Z,23.07
2022-10-14T13:01:59.707Z,23.06
2022-10-14T13:04:28.716Z,23.03
2022-10-14T13:07:41.538Z,23.05
2022-10-14T13:10:50.532Z,23.06
2022-10-14T13:13:54.403Z,23.04
2022-10-14T13:16:59.869Z,23.07
2022-10-14T13:19:45.471Z,23.09
2022-10-14T13:22:42.006Z,23.10
2022-10-14T13:25:22.842Z,23.12
2022-10-14T13:28:06.087Z,23.06
2022-10-14T13:30:48.003Z,23.02
2022-10-14T13:33:23.852Z,23.01
2022-10-14T13:36:05.598Z,22.94
2022-10-14T13:38:35.738Z,22.91
2022-10-14T13:41:05.020Z,22.88
2022-10-14T13:43:39.687Z,22.82
2022-10-14T13:46:15.448Z,22.78
2022-10-14T13:48:47.062Z,22.78
2022-10-14T13:51:37.766Z,22.73
2022-10-14T13:54:19.988Z,22.68
2022-10-14T14:02:47.227Z,22.58
2022-10-14T14:05:21.077Z,22.54
2022-10-14T14:11:03.702Z,22.49
2022-10-14T14:13:29.692Z,22.46
2022-10-14T14:15:58.526Z,22.46
2022-10-14T14:18:49.386Z,22.43
2022-10-14T14:21:26.586Z,22.41
2022-10-14T14:23:56.766Z,22.40
2022-10-14T14:26:33.854Z,22.37
2022-10-14T14:29:06.059Z,22.33
2022-10-14T14:32:05.103Z,22.35
2022-10-14T14:34:26.314Z,22.33
2022-10-14T14:37:01.320Z,22.32
2022-10-14T14:39:33.898Z,22.30
2022-10-14T14:42:02.696Z,22.29
2022-10-14T14:44:34.505Z,22.29
2022-10-14T14:47:05.243Z,22.28
2022-10-14T14:49:39.210Z,22.29
2022-10-14T14:52:08.480Z,22.29
2022-10-14T14:54:46.002Z,22.27
2022-10-14T14:57:19.816Z,22.27
2022-10-14T15:00:02.581Z,22.25
2022-10-14T15:02:34.083Z,22.26
2022-10-14T15:05:07.114Z,22.26
2022-10-14T15:07:36.773Z,22.25
2022-10-14T15:10:18.813Z,22.24
2022-10-14T15:12:55.567Z,22.21
2022-10-14T15:15:31.147Z,22.17
2022-10-14T15:18:20.868Z,22.11
2022-10-14T15:20:50.801Z,22.07
2022-10-14T15:23:43.008Z,22.00
2022-10-14T15:26:29.924Z,21.95
2022-10-14T15:32:13.785Z,21.80
2022-10-14T15:34:42.539Z,21.75
2022-10-14T15:37:14.549Z,21.69
2022-10-14T15:39:43.108Z,21.63
2022-10-14T15:42:13.320Z,21.56
2022-10-14T15:44:41.622Z,21.51
2022-10-14T15:47:22.488Z,21.43
2022-10-14T15:49:50.834Z,21.38
2022-10-14T15:52:23.037Z,21.32
2022-10-14T15:54:54.809Z,21.27
2022-10-14T15:57:23.835Z,21.21
2022-10-14T15:59:53.749Z,21.15
2022-10-14T16:02:25.846Z,21.09
2022-10-14T16:07:45.497Z,20.98
2022-10-14T16:10:17.137Z,20.93
2022-10-14T16:12:46.000Z,20.89
2022-10-14T16:15:36.003Z,20.82
2022-10-14T16:18:04.471Z,20.79
2022-10-14T16:20:33.007Z,20.75
2022-10-14T16:23:04.761Z,20.72
2022-10-14T16:25:39.376Z,20.65
2022-10-14T16:28:10.434Z,20.61
2022-10-14T16:30:41.883Z,20.59
2022-10-14T16:35:46.939Z,20.50
2022-10-14T16:38:16.805Z,20.46
2022-10-14T16:40:45.173Z,20.42
2022-10-14T16:43:13.626Z,20.38
2022-10-14T16:45:41.989Z,20.36
2022-10-14T16:48:10.259Z,20.32
2022-10-14T16:50:38.588Z,20.29
2022-10-14T16:53:24.542Z,20.26
2022-10-14T16:55:57.782Z,20.22
2022-10-14T16:58:27.839Z,20.19
2022-10-14T17:00:56.359Z,20.17
2022-10-14T17:03:24.719Z,20.15
2022-10-14T17:05:59.363Z,20.12
2022-10-14T17:08:27.854Z,20.11
2022-10-14T17:10:59.949Z,20.08
2022-10-14T17:13:28.346Z,20.08
2022-10-14T17:16:02.001Z,20.03
2022-10-14T17:18:34.566Z,20.01
2022-10-14T17:21:07.067Z,19.99
2022-10-14T17:23:35.838Z,19.97
2022-10-14T17:26:07.045Z,19.96
2022-10-14T17:28:35.464Z,19.93
2022-10-14T17:31:08.755Z,19.89
2022-10-14T17:33:37.235Z,19.88
2022-10-14T17:36:07.055Z,19.86
2022-10-14T17:38:36.774Z,19.85
2022-10-14T17:41:08.846Z,19.82
2022-10-14T17:43:37.759Z,19.79
2022-10-14T17:48:43.366Z,19.75
2022-10-14T17:51:12.102Z,19.73
2022-10-14T17:53:41.297Z,19.70
2022-10-14T17:56:13.121Z,19.65
2022-10-14T17:58:42.258Z,19.63
2022-10-14T18:01:14.487Z,19.60
2022-10-14T18:03:44.655Z,19.55
2022-10-14T18:06:15.743Z,19.53
2022-10-14T18:08:46.183Z,19.47
2022-10-14T18:11:16.539Z,19.40
2022-10-14T18:13:44.940Z,19.43
2022-10-14T18:16:14.861Z,19.36
2022-10-14T18:18:43.510Z,19.33
2022-10-14T18:21:12.140Z,19.30
2022-10-14T18:23:42.365Z,19.25
2022-10-14T18:26:13.620Z,19.23
2022-10-14T18:28:45.451Z,19.19
2022-10-14T18:31:15.933Z,19.18
2022-10-14T18:33:45.952Z,19.15
2022-10-14T18:36:17.546Z,19.13
2022-10-14T18:38:52.361Z,19.11
2022-10-14T18:41:21.939Z,19.09
2022-10-14T18:43:52.420Z,19.06
2022-10-14T18:46:23.443Z,19.05
2022-10-14T18:48:54.501Z,19.06
2022-10-14T18:51:26.610Z,19.05
2022-10-14T18:53:58.488Z,19.03
2022-10-14T18:56:29.865Z,19.03
2022-10-14T18:59:01.817Z,19.03
2022-10-14T19:01:31.144Z,19.02
2022-10-14T19:04:00.638Z,19.02
2022-10-14T19:06:29.027Z,19.01
2022-10-14T19:08:57.369Z,19.01
2022-10-14T19:11:26.744Z,19.01
2022-10-14T19:13:58.538Z,18.98
2022-10-14T19:16:29.407Z,18.99
2022-10-14T19:18:59.982Z,18.98
2022-10-14T19:21:30.335Z,19.03
2022-10-14T19:23:59.543Z,18.95
2022-10-14T19:26:31.095Z,18.94
2022-10-14T19:29:04.264Z,18.92
2022-10-14T19:31:37.501Z,18.89
2022-10-14T19:34:08.045Z,18.89
2022-10-14T19:36:39.411Z,18.89
2022-10-14T19:39:11.216Z,18.90
2022-10-14T19:41:43.201Z,18.90
2022-10-14T19:44:14.513Z,18.90
2022-10-14T19:46:43.613Z,18.89
2022-10-14T19:49:14.934Z,18.90
2022-10-14T19:51:43.306Z,18.88
2022-10-14T19:54:13.059Z,18.84
2022-10-14T19:56:41.788Z,18.88
2022-10-14T19:59:13.550Z,18.87
2022-10-14T20:01:42.479Z,18.88
2022-10-14T20:04:11.081Z,18.85
2022-10-14T20:06:40.432Z,18.84
2022-10-14T20:09:09.865Z,18.86
2022-10-14T20:11:38.270Z,18.84
2022-10-14T20:14:06.674Z,18.86
2022-10-14T20:16:36.449Z,18.85
2022-10-14T20:19:06.168Z,18.85
2022-10-14T20:21:34.447Z,18.84
2022-10-14T20:24:02.759Z,18.82
2022-10-14T20:26:31.168Z,18.82
2022-10-14T20:28:59.796Z,18.82
2022-10-14T20:31:28.124Z,18.81
2022-10-14T20:33:58.338Z,18.79
2022-10-14T20:36:27.258Z,18.79
2022-10-14T20:38:55.593Z,18.76
2022-10-14T20:41:26.567Z,18.74
2022-10-14T20:43:56.384Z,18.73
2022-10-14T20:46:25.592Z,18.71
2022-10-14T20:48:59.494Z,18.66
2022-10-14T20:51:28.402Z,18.69
2022-10-14T20:54:01.890Z,18.67
2022-10-14T20:56:34.845Z,18.66
2022-10-14T20:59:06.119Z,18.63
2022-10-14T21:01:36.282Z,18.60
2022-10-14T21:04:08.483Z,18.56
2022-10-14T21:06:38.827Z,18.52
2022-10-14T21:09:07.445Z,18.48
2022-10-14T21:11:35.856Z,18.46
2022-10-14T21:14:04.550Z,18.45
2022-10-14T21:16:35.096Z,18.42
2022-10-14T21:19:07.424Z,18.41
2022-10-14T21:21:38.587Z,18.41
2022-10-14T21:24:08.208Z,18.38
2022-10-14T21:26:36.490Z,18.37
2022-10-14T21:29:05.608Z,18.32
2022-10-14T21:31:33.981Z,18.28
2022-10-14T21:34:06.710Z,18.23
2022-10-14T21:36:35.561Z,18.20
2022-10-14T21:39:07.638Z,18.14
2022-10-14T21:41:36.257Z,18.13
2022-10-14T21:44:04.948Z,18.13
2022-10-14T21:46:33.790Z,18.13
2022-10-14T21:49:02.100Z,18.12
2022-10-14T21:51:33.271Z,18.09
2022-10-14T21:54:01.718Z,18.06
2022-10-14T21:56:30.272Z,18.06
2022-10-14T21:58:58.622Z,18.05
2022-10-14T22:01:29.126Z,18.01
2022-10-14T22:04:00.134Z,17.99
2022-10-14T22:06:29.479Z,18.01
2022-10-14T22:09:01.670Z,18.02
2022-10-14T22:11:32.804Z,18.03
2022-10-14T22:14:03.214Z,18.06
2022-10-14T22:16:31.875Z,18.08
2022-10-14T22:19:03.279Z,18.09
2022-10-14T22:21:34.741Z,18.11
2022-10-14T22:24:05.304Z,18.11
2022-10-14T22:26:34.545Z,18.14
2022-10-14T22:29:06.198Z,18.14
2022-10-14T22:31:35.528Z,18.15
2022-10-14T22:34:07.878Z,18.15
2022-10-14T22:36:36.949Z,18.17
2022-10-14T22:39:09.183Z,18.17
2022-10-14T22:41:37.504Z,18.18
2022-10-14T22:44:08.398Z,18.17
2022-10-14T22:46:38.394Z,18.16
2022-10-14T22:49:07.123Z,18.15
2022-10-14T22:51:37.801Z,18.11
2022-10-14T22:54:07.762Z,18.09
2022-10-14T22:56:36.081Z,18.08
2022-10-14T22:59:08.710Z,18.05
2022-10-14T23:01:37.545Z,18.05
2022-10-14T23:04:06.291Z,18.02
2022-10-14T23:06:35.066Z,17.99
2022-10-14T23:09:04.343Z,17.98
2022-10-14T23:11:34.036Z,17.96
2022-10-14T23:14:06.167Z,17.97
2022-10-14T23:16:36.256Z,17.97
2022-10-14T23:19:04.897Z,17.98
2022-10-14T23:21:35.272Z,17.98
2022-10-14T23:24:07.141Z,17.97
2022-10-14T23:26:37.231Z,17.99
2022-10-14T23:29:09.056Z,17.98
2022-10-14T23:31:39.433Z,17.99
2022-10-14T23:34:12.402Z,17.99
2022-10-14T23:36:41.244Z,18.01
2022-10-14T23:39:09.670Z,18.01
2022-10-14T23:41:39.750Z,18.01
2022-10-14T23:44:08.031Z,18.01
2022-10-14T23:46:36.514Z,17.99
2022-10-14T23:49:24.487Z,17.99
2022-10-14T23:51:53.190Z,17.96
2022-10-14T23:54:21.559Z,17.96
2022-10-14T23:56:51.323Z,17.95
2022-10-14T23:59:19.848Z,17.96
